sensor_id;sensor_type;location;lat;lon;timestamp;temperature;humidity
8778;DHT22;4425;50.872;4.712;2023-01-19T00:01:34;1.70;99.90
8778;DHT22;4425;50.872;4.712;2023-01-19T00:04:16;1.70;99.90
8778;DHT22;4425;50.872;4.712;2023-01-19T00:06:45;1.70;99.90
8778;DHT22;4425;50.872;4.712;2023-01-19T00:09:12;1.60;99.90
8778;DHT22;4425;50.872;4.712;2023-01-19T00:11:39;1.60;99.90
8778;DHT22;4425;50.872;4.712;2023-01-19T00:14:06;1.50;99.90
8778;DHT22;4425;50.872;4.712;2023-01-19T00:16:35;1.50;99.90
8778;DHT22;4425;50.872;4.712;2023-01-19T00:19:05;1.50;99.90
8778;DHT22;4425;50.872;4.712;2023-01-19T00:21:36;1.40;99.90
8778;DHT22;4425;50.872;4.712;2023-01-19T00:24:04;1.50;99.90
8778;DHT22;4425;50.872;4.712;2023-01-19T00:26:31;1.40;99.90
8778;DHT22;4425;50.872;4.712;2023-01-19T00:29:00;1.40;99.90
8778;DHT22;4425;50.872;4.712;2023-01-19T00:31:27;1.40;99.90
8778;DHT22;4425;50.872;4.712;2023-01-19T00:33:58;1.40;99.90
8778;DHT22;4425;50.872;4.712;2023-01-19T00:36:25;1.40;99.90
8778;DHT22;4425;50.872;4.712;2023-01-19T00:38:55;1.40;99.90
8778;DHT22;4425;50.872;4.712;2023-01-19T00:41:22;1.50;99.90
8778;DHT22;4425;50.872;4.712;2023-01-19T00:44:11;1.60;99.90
8778;DHT22;4425;50.872;4.712;2023-01-19T00:46:38;1.60;99.90
8778;DHT22;4425;50.872;4.712;2023-01-19T00:49:05;1.50;99.90
8778;DHT22;4425;50.872;4.712;2023-01-19T00:51:34;1.60;99.90
8778;DHT22;4425;50.872;4.712;2023-01-19T00:54:02;1.60;99.90
8778;DHT22;4425;50.872;4.712;2023-01-19T00:56:35;1.60;99.90
8778;DHT22;4425;50.872;4.712;2023-01-19T00:59:02;1.50;99.90
8778;DHT22;4425;50.872;4.712;2023-01-19T01:01:30;1.50;99.90
8778;DHT22;4425;50.872;4.712;2023-01-19T01:03:57;1.50;99.90
8778;DHT22;4425;50.872;4.712;2023-01-19T01:06:24;1.50;99.90
8778;DHT22;4425;50.872;4.712;2023-01-19T01:08:52;1.50;99.90
8778;DHT22;4425;50.872;4.712;2023-01-19T01:11:21;1.50;99.90
8778;DHT22;4425;50.872;4.712;2023-01-19T01:13:48;1.50;99.90
8778;DHT22;4425;50.872;4.712;2023-01-19T01:16:16;1.50;99.90
8778;DHT22;4425;50.872;4.712;2023-01-19T01:18:46;1.50;99.90
8778;DHT22;4425;50.872;4.712;2023-01-19T01:21:13;1.40;99.90
8778;DHT22;4425;50.872;4.712;2023-01-19T01:23:40;1.40;99.90
8778;DHT22;4425;50.872;4.712;2023-01-19T01:26:07;1.40;99.90
8778;DHT22;4425;50.872;4.712;2023-01-19T01:28:36;1.30;99.90
8778;DHT22;4425;50.872;4.712;2023-01-19T01:31:03;1.30;99.90
8778;DHT22;4425;50.872;4.712;2023-01-19T01:33:31;1.30;99.90
8778;DHT22;4425;50.872;4.712;2023-01-19T01:36:01;1.30;99.90
8778;DHT22;4425;50.872;4.712;2023-01-19T01:38:28;1.40;99.90
8778;DHT22;4425;50.872;4.712;2023-01-19T01:40:56;1.30;99.90
8778;DHT22;4425;50.872;4.712;2023-01-19T01:43:43;1.30;99.90
8778;DHT22;4425;50.872;4.712;2023-01-19T01:46:12;1.30;99.90
8778;DHT22;4425;50.872;4.712;2023-01-19T01:48:43;1.30;99.90
8778;DHT22;4425;50.872;4.712;2023-01-19T01:51:14;1.40;99.90
8778;DHT22;4425;50.872;4.712;2023-01-19T01:54:09;1.30;99.90
8778;DHT22;4425;50.872;4.712;2023-01-19T01:56:40;1.30;99.90
8778;DHT22;4425;50.872;4.712;2023-01-19T01:59:13;1.30;99.90
8778;DHT22;4425;50.872;4.712;2023-01-19T02:01:44;1.30;99.90
8778;DHT22;4425;50.872;4.712;2023-01-19T02:04:46;1.20;99.90
8778;DHT22;4425;50.872;4.712;2023-01-19T02:07:18;1.30;99.90
8778;DHT22;4425;50.872;4.712;2023-01-19T02:10:05;1.30;99.90
8778;DHT22;4425;50.872;4.712;2023-01-19T02:12:56;1.30;99.90
8778;DHT22;4425;50.872;4.712;2023-01-19T02:15:42;1.20;99.90
8778;DHT22;4425;50.872;4.712;2023-01-19T02:18:09;1.30;99.90
8778;DHT22;4425;50.872;4.712;2023-01-19T02:20:39;1.20;99.90
8778;DHT22;4425;50.872;4.712;2023-01-19T02:23:13;1.20;99.90
8778;DHT22;4425;50.872;4.712;2023-01-19T02:25:47;1.20;99.90
8778;DHT22;4425;50.872;4.712;2023-01-19T02:28:17;1.20;99.90
8778;DHT22;4425;50.872;4.712;2023-01-19T02:30:44;1.20;99.90
8778;DHT22;4425;50.872;4.712;2023-01-19T02:33:11;1.20;99.90
8778;DHT22;4425;50.872;4.712;2023-01-19T02:35:40;1.10;99.90
8778;DHT22;4425;50.872;4.712;2023-01-19T02:38:28;1.20;99.90
8778;DHT22;4425;50.872;4.712;2023-01-19T02:41:36;1.20;99.90
8778;DHT22;4425;50.872;4.712;2023-01-19T02:44:06;1.20;99.90
8778;DHT22;4425;50.872;4.712;2023-01-19T02:46:35;1.30;99.90
8778;DHT22;4425;50.872;4.712;2023-01-19T02:49:03;1.30;99.90
8778;DHT22;4425;50.872;4.712;2023-01-19T02:51:30;1.30;99.90
8778;DHT22;4425;50.872;4.712;2023-01-19T02:54:08;1.30;99.90
8778;DHT22;4425;50.872;4.712;2023-01-19T02:56:48;1.30;99.90
8778;DHT22;4425;50.872;4.712;2023-01-19T02:59:26;1.30;99.90
8778;DHT22;4425;50.872;4.712;2023-01-19T03:02:07;1.30;99.90
8778;DHT22;4425;50.872;4.712;2023-01-19T03:04:52;1.30;99.90
8778;DHT22;4425;50.872;4.712;2023-01-19T03:07:32;1.30;99.90
8778;DHT22;4425;50.872;4.712;2023-01-19T03:10:07;1.30;99.90
8778;DHT22;4425;50.872;4.712;2023-01-19T03:12:44;1.30;99.90
8778;DHT22;4425;50.872;4.712;2023-01-19T03:15:18;1.40;99.90
8778;DHT22;4425;50.872;4.712;2023-01-19T03:17:49;1.40;99.90
8778;DHT22;4425;50.872;4.712;2023-01-19T03:20:21;1.50;99.90
8778;DHT22;4425;50.872;4.712;2023-01-19T03:22:52;1.50;99.90
8778;DHT22;4425;50.872;4.712;2023-01-19T03:25:22;1.50;99.90
8778;DHT22;4425;50.872;4.712;2023-01-19T03:27:53;1.50;99.90
8778;DHT22;4425;50.872;4.712;2023-01-19T03:30:26;1.60;99.90
8778;DHT22;4425;50.872;4.712;2023-01-19T03:33:00;1.60;99.90
8778;DHT22;4425;50.872;4.712;2023-01-19T03:35:33;1.70;99.90
8778;DHT22;4425;50.872;4.712;2023-01-19T03:38:04;1.70;99.90
8778;DHT22;4425;50.872;4.712;2023-01-19T03:40:34;1.70;99.90
8778;DHT22;4425;50.872;4.712;2023-01-19T03:43:04;1.70;99.90
8778;DHT22;4425;50.872;4.712;2023-01-19T03:45:33;1.80;99.90
8778;DHT22;4425;50.872;4.712;2023-01-19T03:48:06;1.90;99.90
8778;DHT22;4425;50.872;4.712;2023-01-19T03:50:33;1.90;99.90
8778;DHT22;4425;50.872;4.712;2023-01-19T03:53:04;1.90;99.90
8778;DHT22;4425;50.872;4.712;2023-01-19T03:55:31;2.00;99.90
8778;DHT22;4425;50.872;4.712;2023-01-19T03:58:00;2.00;99.90
8778;DHT22;4425;50.872;4.712;2023-01-19T04:00:32;2.00;99.90
8778;DHT22;4425;50.872;4.712;2023-01-19T04:03:01;2.10;99.90
8778;DHT22;4425;50.872;4.712;2023-01-19T04:05:31;2.10;99.90
8778;DHT22;4425;50.872;4.712;2023-01-19T04:08:01;2.20;99.90
8778;DHT22;4425;50.872;4.712;2023-01-19T04:10:28;2.10;99.90
8778;DHT22;4425;50.872;4.712;2023-01-19T04:12:56;2.20;99.90
8778;DHT22;4425;50.872;4.712;2023-01-19T04:15:24;2.10;99.90
8778;DHT22;4425;50.872;4.712;2023-01-19T04:17:53;2.20;99.90
8778;DHT22;4425;50.872;4.712;2023-01-19T04:20:20;2.10;99.90
8778;DHT22;4425;50.872;4.712;2023-01-19T04:22:48;2.00;99.90
8778;DHT22;4425;50.872;4.712;2023-01-19T04:25:15;2.10;99.90
8778;DHT22;4425;50.872;4.712;2023-01-19T04:27:42;2.10;99.90
8778;DHT22;4425;50.872;4.712;2023-01-19T04:30:10;2.10;99.90
8778;DHT22;4425;50.872;4.712;2023-01-19T04:32:37;2.10;99.90
8778;DHT22;4425;50.872;4.712;2023-01-19T04:35:06;2.20;99.90
8778;DHT22;4425;50.872;4.712;2023-01-19T04:37:34;2.10;99.90
8778;DHT22;4425;50.872;4.712;2023-01-19T04:40:01;2.00;99.90
8778;DHT22;4425;50.872;4.712;2023-01-19T04:42:28;2.00;99.90
8778;DHT22;4425;50.872;4.712;2023-01-19T04:44:55;2.00;99.90
8778;DHT22;4425;50.872;4.712;2023-01-19T04:47:22;2.00;99.90
8778;DHT22;4425;50.872;4.712;2023-01-19T04:49:49;1.90;99.90
8778;DHT22;4425;50.872;4.712;2023-01-19T04:52:18;1.90;99.90
8778;DHT22;4425;50.872;4.712;2023-01-19T04:54:46;1.90;99.90
8778;DHT22;4425;50.872;4.712;2023-01-19T04:57:13;1.90;99.90
8778;DHT22;4425;50.872;4.712;2023-01-19T04:59:40;1.90;99.90
8778;DHT22;4425;50.872;4.712;2023-01-19T05:02:07;1.80;99.90
8778;DHT22;4425;50.872;4.712;2023-01-19T05:04:36;1.90;99.90
8778;DHT22;4425;50.872;4.712;2023-01-19T05:07:03;1.90;99.90
8778;DHT22;4425;50.872;4.712;2023-01-19T05:09:31;1.80;99.90
8778;DHT22;4425;50.872;4.712;2023-01-19T05:12:02;1.80;99.90
8778;DHT22;4425;50.872;4.712;2023-01-19T05:14:29;1.80;99.90
8778;DHT22;4425;50.872;4.712;2023-01-19T05:16:56;1.80;99.90
8778;DHT22;4425;50.872;4.712;2023-01-19T05:19:27;1.80;99.90
8778;DHT22;4425;50.872;4.712;2023-01-19T05:21:54;1.70;99.90
8778;DHT22;4425;50.872;4.712;2023-01-19T05:24:21;1.70;99.90
8778;DHT22;4425;50.872;4.712;2023-01-19T05:26:50;1.70;99.90
8778;DHT22;4425;50.872;4.712;2023-01-19T05:29:17;1.70;99.90
8778;DHT22;4425;50.872;4.712;2023-01-19T05:31:45;1.70;99.90
8778;DHT22;4425;50.872;4.712;2023-01-19T05:34:16;1.60;99.90
8778;DHT22;4425;50.872;4.712;2023-01-19T05:36:43;1.60;99.90
8778;DHT22;4425;50.872;4.712;2023-01-19T05:39:11;1.60;99.90
8778;DHT22;4425;50.872;4.712;2023-01-19T05:41:59;1.60;99.90
8778;DHT22;4425;50.872;4.712;2023-01-19T05:44:28;1.60;99.90
8778;DHT22;4425;50.872;4.712;2023-01-19T05:46:55;1.60;99.90
8778;DHT22;4425;50.872;4.712;2023-01-19T05:49:22;1.60;99.90
8778;DHT22;4425;50.872;4.712;2023-01-19T05:51:49;1.60;99.90
8778;DHT22;4425;50.872;4.712;2023-01-19T05:54:16;1.60;99.90
8778;DHT22;4425;50.872;4.712;2023-01-19T05:56:43;1.60;99.90
8778;DHT22;4425;50.872;4.712;2023-01-19T05:59:11;1.60;99.90
8778;DHT22;4425;50.872;4.712;2023-01-19T06:01:42;1.50;99.90
8778;DHT22;4425;50.872;4.712;2023-01-19T06:04:24;1.50;99.90
8778;DHT22;4425;50.872;4.712;2023-01-19T06:06:51;1.50;99.90
8778;DHT22;4425;50.872;4.712;2023-01-19T06:09:19;1.40;99.90
8778;DHT22;4425;50.872;4.712;2023-01-19T06:11:46;1.50;99.90
8778;DHT22;4425;50.872;4.712;2023-01-19T06:14:14;1.50;99.90
8778;DHT22;4425;50.872;4.712;2023-01-19T06:16:41;1.40;99.90
8778;DHT22;4425;50.872;4.712;2023-01-19T06:19:09;1.40;99.90
8778;DHT22;4425;50.872;4.712;2023-01-19T06:21:36;1.40;99.90
8778;DHT22;4425;50.872;4.712;2023-01-19T06:24:03;1.30;99.90
8778;DHT22;4425;50.872;4.712;2023-01-19T06:26:32;1.40;99.90
8778;DHT22;4425;50.872;4.712;2023-01-19T06:28:59;1.40;99.90
8778;DHT22;4425;50.872;4.712;2023-01-19T06:31:28;1.40;99.90
8778;DHT22;4425;50.872;4.712;2023-01-19T06:33:55;1.30;99.90
8778;DHT22;4425;50.872;4.712;2023-01-19T06:36:22;1.30;99.90
8778;DHT22;4425;50.872;4.712;2023-01-19T06:38:49;1.30;99.90
8778;DHT22;4425;50.872;4.712;2023-01-19T06:41:16;1.30;99.90
8778;DHT22;4425;50.872;4.712;2023-01-19T06:43:45;1.30;99.90
8778;DHT22;4425;50.872;4.712;2023-01-19T06:46:13;1.30;99.90
8778;DHT22;4425;50.872;4.712;2023-01-19T06:48:42;1.30;99.90
8778;DHT22;4425;50.872;4.712;2023-01-19T06:51:08;1.30;99.90
8778;DHT22;4425;50.872;4.712;2023-01-19T06:53:36;1.30;99.90
8778;DHT22;4425;50.872;4.712;2023-01-19T06:56:03;1.30;99.90
8778;DHT22;4425;50.872;4.712;2023-01-19T06:58:33;1.30;99.90
8778;DHT22;4425;50.872;4.712;2023-01-19T07:01:01;1.30;99.90
8778;DHT22;4425;50.872;4.712;2023-01-19T07:03:29;1.30;99.90
8778;DHT22;4425;50.872;4.712;2023-01-19T07:06:02;1.40;99.90
8778;DHT22;4425;50.872;4.712;2023-01-19T07:08:31;1.30;99.90
8778;DHT22;4425;50.872;4.712;2023-01-19T07:10:59;1.40;99.90
8778;DHT22;4425;50.872;4.712;2023-01-19T07:13:28;1.40;99.90
8778;DHT22;4425;50.872;4.712;2023-01-19T07:15:55;1.50;99.90
8778;DHT22;4425;50.872;4.712;2023-01-19T07:18:22;1.60;99.90
8778;DHT22;4425;50.872;4.712;2023-01-19T07:20:51;1.60;99.90
8778;DHT22;4425;50.872;4.712;2023-01-19T07:23:23;1.60;99.90
8778;DHT22;4425;50.872;4.712;2023-01-19T07:25:50;1.80;99.90
8778;DHT22;4425;50.872;4.712;2023-01-19T07:28:17;1.60;99.90
8778;DHT22;4425;50.872;4.712;2023-01-19T07:30:47;1.60;99.90
8778;DHT22;4425;50.872;4.712;2023-01-19T07:33:18;1.60;99.90
8778;DHT22;4425;50.872;4.712;2023-01-19T07:35:48;1.60;99.90
8778;DHT22;4425;50.872;4.712;2023-01-19T07:38:19;1.50;99.90
8778;DHT22;4425;50.872;4.712;2023-01-19T07:40:48;1.50;99.90
8778;DHT22;4425;50.872;4.712;2023-01-19T07:43:15;1.50;99.90
8778;DHT22;4425;50.872;4.712;2023-01-19T07:45:43;1.50;99.90
8778;DHT22;4425;50.872;4.712;2023-01-19T07:48:10;1.50;99.90
8778;DHT22;4425;50.872;4.712;2023-01-19T07:50:38;1.50;99.90
8778;DHT22;4425;50.872;4.712;2023-01-19T07:53:05;1.50;99.90
8778;DHT22;4425;50.872;4.712;2023-01-19T07:55:32;1.50;99.90
8778;DHT22;4425;50.872;4.712;2023-01-19T07:58:02;1.50;99.90
8778;DHT22;4425;50.872;4.712;2023-01-19T08:00:32;1.60;99.90
8778;DHT22;4425;50.872;4.712;2023-01-19T08:03:00;1.60;99.90
8778;DHT22;4425;50.872;4.712;2023-01-19T08:05:29;1.60;99.90
8778;DHT22;4425;50.872;4.712;2023-01-19T08:07:57;1.60;99.90
8778;DHT22;4425;50.872;4.712;2023-01-19T08:10:27;1.60;99.90
8778;DHT22;4425;50.872;4.712;2023-01-19T08:12:55;1.70;99.90
8778;DHT22;4425;50.872;4.712;2023-01-19T08:15:25;1.70;99.90
8778;DHT22;4425;50.872;4.712;2023-01-19T08:17:56;1.70;99.90
8778;DHT22;4425;50.872;4.712;2023-01-19T08:20:23;1.70;99.90
8778;DHT22;4425;50.872;4.712;2023-01-19T08:22:52;1.80;99.90
8778;DHT22;4425;50.872;4.712;2023-01-19T08:25:25;1.80;99.90
8778;DHT22;4425;50.872;4.712;2023-01-19T08:27:54;1.90;99.90
8778;DHT22;4425;50.872;4.712;2023-01-19T08:30:23;2.00;99.90
8778;DHT22;4425;50.872;4.712;2023-01-19T08:32:54;2.00;99.90
8778;DHT22;4425;50.872;4.712;2023-01-19T08:35:28;2.20;99.90
8778;DHT22;4425;50.872;4.712;2023-01-19T08:37:57;2.40;99.90
8778;DHT22;4425;50.872;4.712;2023-01-19T08:40:29;2.60;99.90
8778;DHT22;4425;50.872;4.712;2023-01-19T08:42:59;2.70;99.90
8778;DHT22;4425;50.872;4.712;2023-01-19T08:45:31;2.70;99.90
8778;DHT22;4425;50.872;4.712;2023-01-19T08:47:59;2.90;99.90
8778;DHT22;4425;50.872;4.712;2023-01-19T08:50:27;2.80;99.90
8778;DHT22;4425;50.872;4.712;2023-01-19T08:52:55;3.10;99.90
8778;DHT22;4425;50.872;4.712;2023-01-19T08:55:22;2.90;99.90
8778;DHT22;4425;50.872;4.712;2023-01-19T08:57:50;3.00;99.90
8778;DHT22;4425;50.872;4.712;2023-01-19T09:00:19;3.00;99.90
8778;DHT22;4425;50.872;4.712;2023-01-19T09:02:49;3.00;99.90
8778;DHT22;4425;50.872;4.712;2023-01-19T09:05:18;2.90;99.90
8778;DHT22;4425;50.872;4.712;2023-01-19T09:07:45;3.00;99.90
8778;DHT22;4425;50.872;4.712;2023-01-19T09:10:17;3.00;99.90
8778;DHT22;4425;50.872;4.712;2023-01-19T09:12:45;3.00;99.90
8778;DHT22;4425;50.872;4.712;2023-01-19T09:15:15;2.90;99.90
8778;DHT22;4425;50.872;4.712;2023-01-19T09:17:50;2.80;99.90
8778;DHT22;4425;50.872;4.712;2023-01-19T09:20:19;2.70;99.90
8778;DHT22;4425;50.872;4.712;2023-01-19T09:22:47;2.70;99.90
8778;DHT22;4425;50.872;4.712;2023-01-19T09:25:25;2.70;99.90
8778;DHT22;4425;50.872;4.712;2023-01-19T09:27:53;2.80;99.90
8778;DHT22;4425;50.872;4.712;2023-01-19T09:30:20;2.80;99.90
8778;DHT22;4425;50.872;4.712;2023-01-19T09:32:49;2.80;99.90
8778;DHT22;4425;50.872;4.712;2023-01-19T09:35:17;2.90;99.90
8778;DHT22;4425;50.872;4.712;2023-01-19T09:37:47;2.90;99.90
8778;DHT22;4425;50.872;4.712;2023-01-19T09:40:17;3.00;99.90
8778;DHT22;4425;50.872;4.712;2023-01-19T09:42:49;2.90;99.90
8778;DHT22;4425;50.872;4.712;2023-01-19T09:45:24;3.00;99.90
8778;DHT22;4425;50.872;4.712;2023-01-19T09:47:55;3.00;99.90
8778;DHT22;4425;50.872;4.712;2023-01-19T09:50:27;3.10;99.90
8778;DHT22;4425;50.872;4.712;2023-01-19T09:53:04;3.10;99.90
8778;DHT22;4425;50.872;4.712;2023-01-19T09:55:40;3.10;99.90
8778;DHT22;4425;50.872;4.712;2023-01-19T09:58:11;3.20;99.90
8778;DHT22;4425;50.872;4.712;2023-01-19T10:00:42;3.30;99.90
8778;DHT22;4425;50.872;4.712;2023-01-19T10:03:16;3.30;99.90
8778;DHT22;4425;50.872;4.712;2023-01-19T10:05:47;3.40;99.90
8778;DHT22;4425;50.872;4.712;2023-01-19T10:08:19;3.40;99.90
8778;DHT22;4425;50.872;4.712;2023-01-19T10:10:52;3.60;99.90
8778;DHT22;4425;50.872;4.712;2023-01-19T10:13:34;3.70;99.90
8778;DHT22;4425;50.872;4.712;2023-01-19T10:16:19;3.70;99.90
8778;DHT22;4425;50.872;4.712;2023-01-19T10:18:58;3.70;99.90
8778;DHT22;4425;50.872;4.712;2023-01-19T10:21:32;3.60;99.90
8778;DHT22;4425;50.872;4.712;2023-01-19T10:24:03;3.60;99.90
8778;DHT22;4425;50.872;4.712;2023-01-19T10:26:37;3.50;99.90
8778;DHT22;4425;50.872;4.712;2023-01-19T10:29:14;3.60;99.90
8778;DHT22;4425;50.872;4.712;2023-01-19T10:31:45;3.70;99.90
8778;DHT22;4425;50.872;4.712;2023-01-19T10:34:18;3.70;99.90
8778;DHT22;4425;50.872;4.712;2023-01-19T10:36:49;3.90;99.90
8778;DHT22;4425;50.872;4.712;2023-01-19T10:39:19;3.90;99.90
8778;DHT22;4425;50.872;4.712;2023-01-19T10:41:49;3.90;99.90
8778;DHT22;4425;50.872;4.712;2023-01-19T10:44:23;4.00;99.90
8778;DHT22;4425;50.872;4.712;2023-01-19T10:46:56;4.00;99.90
8778;DHT22;4425;50.872;4.712;2023-01-19T10:49:29;4.10;99.90
8778;DHT22;4425;50.872;4.712;2023-01-19T10:51:58;4.10;99.90
8778;DHT22;4425;50.872;4.712;2023-01-19T10:54:27;4.20;99.90
8778;DHT22;4425;50.872;4.712;2023-01-19T10:56:57;4.30;99.90
8778;DHT22;4425;50.872;4.712;2023-01-19T10:59:34;4.30;99.90
8778;DHT22;4425;50.872;4.712;2023-01-19T11:02:16;4.20;99.90
8778;DHT22;4425;50.872;4.712;2023-01-19T11:04:47;4.10;99.90
8778;DHT22;4425;50.872;4.712;2023-01-19T11:07:19;3.90;99.90
8778;DHT22;4425;50.872;4.712;2023-01-19T11:10:19;3.80;99.90
8778;DHT22;4425;50.872;4.712;2023-01-19T11:13:00;3.80;99.90
8778;DHT22;4425;50.872;4.712;2023-01-19T11:15:40;3.80;99.90
8778;DHT22;4425;50.872;4.712;2023-01-19T11:18:21;3.70;99.90
8778;DHT22;4425;50.872;4.712;2023-01-19T11:20:56;3.80;99.90
8778;DHT22;4425;50.872;4.712;2023-01-19T11:23:28;3.80;99.90
8778;DHT22;4425;50.872;4.712;2023-01-19T11:25:59;3.80;99.90
8778;DHT22;4425;50.872;4.712;2023-01-19T11:28:30;3.90;99.90
8778;DHT22;4425;50.872;4.712;2023-01-19T11:31:01;3.90;99.90
8778;DHT22;4425;50.872;4.712;2023-01-19T11:33:35;4.00;99.90
8778;DHT22;4425;50.872;4.712;2023-01-19T11:36:15;4.00;99.90
8778;DHT22;4425;50.872;4.712;2023-01-19T11:38:44;4.10;99.90
8778;DHT22;4425;50.872;4.712;2023-01-19T11:41:17;4.20;99.90
8778;DHT22;4425;50.872;4.712;2023-01-19T11:43:52;4.10;99.90
8778;DHT22;4425;50.872;4.712;2023-01-19T11:46:25;4.10;99.90
8778;DHT22;4425;50.872;4.712;2023-01-19T11:48:54;4.20;99.90
8778;DHT22;4425;50.872;4.712;2023-01-19T11:54:44;4.40;99.90
8778;DHT22;4425;50.872;4.712;2023-01-19T11:57:26;4.40;99.90
8778;DHT22;4425;50.872;4.712;2023-01-19T11:59:56;4.60;99.90
8778;DHT22;4425;50.872;4.712;2023-01-19T12:02:41;4.60;99.90
8778;DHT22;4425;50.872;4.712;2023-01-19T12:05:13;4.80;99.90
8778;DHT22;4425;50.872;4.712;2023-01-19T12:07:58;4.80;99.90
8778;DHT22;4425;50.872;4.712;2023-01-19T12:10:38;4.80;99.90
8778;DHT22;4425;50.872;4.712;2023-01-19T12:13:18;5.00;99.90
8778;DHT22;4425;50.872;4.712;2023-01-19T12:15:47;5.20;99.90
8778;DHT22;4425;50.872;4.712;2023-01-19T12:18:18;5.50;99.90
8778;DHT22;4425;50.872;4.712;2023-01-19T12:20:50;5.30;99.90
8778;DHT22;4425;50.872;4.712;2023-01-19T12:23:26;5.40;99.90
8778;DHT22;4425;50.872;4.712;2023-01-19T12:28:59;5.50;99.90
8778;DHT22;4425;50.872;4.712;2023-01-19T12:31:30;5.40;99.90
8778;DHT22;4425;50.872;4.712;2023-01-19T12:34:35;5.30;99.90
8778;DHT22;4425;50.872;4.712;2023-01-19T12:37:06;5.30;99.90
8778;DHT22;4425;50.872;4.712;2023-01-19T12:39:54;5.30;99.90
8778;DHT22;4425;50.872;4.712;2023-01-19T12:42:24;5.30;99.90
8778;DHT22;4425;50.872;4.712;2023-01-19T12:45:04;5.10;99.90
8778;DHT22;4425;50.872;4.712;2023-01-19T12:47:51;5.10;99.90
8778;DHT22;4425;50.872;4.712;2023-01-19T12:50:21;5.00;99.90
8778;DHT22;4425;50.872;4.712;2023-01-19T12:52:53;4.90;99.90
8778;DHT22;4425;50.872;4.712;2023-01-19T12:55:24;5.00;99.90
8778;DHT22;4425;50.872;4.712;2023-01-19T12:58:00;4.90;99.90
8778;DHT22;4425;50.872;4.712;2023-01-19T13:00:33;4.90;99.90
8778;DHT22;4425;50.872;4.712;2023-01-19T13:05:50;4.90;99.90
8778;DHT22;4425;50.872;4.712;2023-01-19T13:11:17;5.00;99.90
8778;DHT22;4425;50.872;4.712;2023-01-19T13:20:25;5.20;99.90
8778;DHT22;4425;50.872;4.712;2023-01-19T13:23:15;5.20;99.90
8778;DHT22;4425;50.872;4.712;2023-01-19T13:25:48;5.20;99.90
8778;DHT22;4425;50.872;4.712;2023-01-19T13:28:21;5.20;99.90
8778;DHT22;4425;50.872;4.712;2023-01-19T13:30:56;5.30;99.90
8778;DHT22;4425;50.872;4.712;2023-01-19T13:33:28;5.30;99.90
8778;DHT22;4425;50.872;4.712;2023-01-19T13:35:58;5.30;99.90
8778;DHT22;4425;50.872;4.712;2023-01-19T13:38:26;5.30;99.90
8778;DHT22;4425;50.872;4.712;2023-01-19T13:40:55;5.30;99.90
8778;DHT22;4425;50.872;4.712;2023-01-19T13:43:27;5.30;99.90
8778;DHT22;4425;50.872;4.712;2023-01-19T13:45:55;5.40;99.90
8778;DHT22;4425;50.872;4.712;2023-01-19T13:48:26;5.50;99.90
8778;DHT22;4425;50.872;4.712;2023-01-19T13:51:02;5.50;99.90
8778;DHT22;4425;50.872;4.712;2023-01-19T13:53:36;5.50;99.90
8778;DHT22;4425;50.872;4.712;2023-01-19T13:56:08;5.60;99.90
8778;DHT22;4425;50.872;4.712;2023-01-19T13:58:40;5.60;99.90
8778;DHT22;4425;50.872;4.712;2023-01-19T14:01:19;5.60;99.90
8778;DHT22;4425;50.872;4.712;2023-01-19T14:03:47;5.60;99.90
8778;DHT22;4425;50.872;4.712;2023-01-19T14:06:38;5.60;99.90
8778;DHT22;4425;50.872;4.712;2023-01-19T14:09:15;5.70;99.90
8778;DHT22;4425;50.872;4.712;2023-01-19T14:12:03;5.60;99.90
8778;DHT22;4425;50.872;4.712;2023-01-19T14:14:33;5.50;99.90
8778;DHT22;4425;50.872;4.712;2023-01-19T14:17:00;5.50;99.90
8778;DHT22;4425;50.872;4.712;2023-01-19T14:19:43;5.50;99.90
8778;DHT22;4425;50.872;4.712;2023-01-19T14:22:12;5.50;99.90
8778;DHT22;4425;50.872;4.712;2023-01-19T14:24:40;5.50;99.90
8778;DHT22;4425;50.872;4.712;2023-01-19T14:27:14;5.50;99.90
8778;DHT22;4425;50.872;4.712;2023-01-19T14:29:43;5.50;99.90
8778;DHT22;4425;50.872;4.712;2023-01-19T14:32:14;5.50;99.90
8778;DHT22;4425;50.872;4.712;2023-01-19T14:34:44;5.40;99.90
8778;DHT22;4425;50.872;4.712;2023-01-19T14:37:18;5.20;99.90
8778;DHT22;4425;50.872;4.712;2023-01-19T14:39:49;5.20;99.90
8778;DHT22;4425;50.872;4.712;2023-01-19T14:42:21;5.10;99.90
8778;DHT22;4425;50.872;4.712;2023-01-19T14:44:53;5.00;99.90
8778;DHT22;4425;50.872;4.712;2023-01-19T14:47:36;5.00;99.90
8778;DHT22;4425;50.872;4.712;2023-01-19T14:50:29;5.00;99.90
8778;DHT22;4425;50.872;4.712;2023-01-19T14:52:58;5.10;99.90
8778;DHT22;4425;50.872;4.712;2023-01-19T14:55:36;5.10;99.90
8778;DHT22;4425;50.872;4.712;2023-01-19T14:58:09;5.10;99.90
8778;DHT22;4425;50.872;4.712;2023-01-19T15:00:38;5.00;99.90
8778;DHT22;4425;50.872;4.712;2023-01-19T15:03:08;5.00;99.90
8778;DHT22;4425;50.872;4.712;2023-01-19T15:05:37;5.00;99.90
8778;DHT22;4425;50.872;4.712;2023-01-19T15:08:05;5.00;99.90
8778;DHT22;4425;50.872;4.712;2023-01-19T15:10:34;5.00;99.90
8778;DHT22;4425;50.872;4.712;2023-01-19T15:13:04;4.90;99.90
8778;DHT22;4425;50.872;4.712;2023-01-19T15:15:33;4.80;99.90
8778;DHT22;4425;50.872;4.712;2023-01-19T15:18:02;4.90;99.90
8778;DHT22;4425;50.872;4.712;2023-01-19T15:20:30;4.90;99.90
8778;DHT22;4425;50.872;4.712;2023-01-19T15:22:59;4.90;99.90
8778;DHT22;4425;50.872;4.712;2023-01-19T15:25:27;4.90;99.90
8778;DHT22;4425;50.872;4.712;2023-01-19T15:28:11;4.80;99.90
8778;DHT22;4425;50.872;4.712;2023-01-19T15:30:39;4.80;99.90
8778;DHT22;4425;50.872;4.712;2023-01-19T15:33:10;4.80;99.90
8778;DHT22;4425;50.872;4.712;2023-01-19T15:35:40;4.80;99.90
8778;DHT22;4425;50.872;4.712;2023-01-19T15:38:08;4.80;99.90
8778;DHT22;4425;50.872;4.712;2023-01-19T15:40:35;4.80;99.90
8778;DHT22;4425;50.872;4.712;2023-01-19T15:43:02;4.80;99.90
8778;DHT22;4425;50.872;4.712;2023-01-19T15:45:35;4.90;99.90
8778;DHT22;4425;50.872;4.712;2023-01-19T15:48:03;4.70;99.90
8778;DHT22;4425;50.872;4.712;2023-01-19T15:50:34;4.60;99.90
8778;DHT22;4425;50.872;4.712;2023-01-19T15:53:03;4.50;99.90
8778;DHT22;4425;50.872;4.712;2023-01-19T15:55:32;4.50;99.90
8778;DHT22;4425;50.872;4.712;2023-01-19T15:58:00;4.40;99.90
8778;DHT22;4425;50.872;4.712;2023-01-19T16:00:30;4.40;99.90
8778;DHT22;4425;50.872;4.712;2023-01-19T16:03:00;4.30;99.90
8778;DHT22;4425;50.872;4.712;2023-01-19T16:05:27;4.20;99.90
8778;DHT22;4425;50.872;4.712;2023-01-19T16:07:54;4.20;99.90
8778;DHT22;4425;50.872;4.712;2023-01-19T16:10:22;4.20;99.90
8778;DHT22;4425;50.872;4.712;2023-01-19T16:12:54;4.10;99.90
8778;DHT22;4425;50.872;4.712;2023-01-19T16:15:24;4.00;99.90
8778;DHT22;4425;50.872;4.712;2023-01-19T16:17:52;4.00;99.90
8778;DHT22;4425;50.872;4.712;2023-01-19T16:20:19;3.90;99.90
8778;DHT22;4425;50.872;4.712;2023-01-19T16:22:50;3.80;99.90
8778;DHT22;4425;50.872;4.712;2023-01-19T16:25:17;3.80;99.90
8778;DHT22;4425;50.872;4.712;2023-01-19T16:27:45;3.70;99.90
8778;DHT22;4425;50.872;4.712;2023-01-19T16:30:16;3.70;99.90
8778;DHT22;4425;50.872;4.712;2023-01-19T16:32:44;3.60;99.90
8778;DHT22;4425;50.872;4.712;2023-01-19T16:35:12;3.50;99.90
8778;DHT22;4425;50.872;4.712;2023-01-19T16:37:41;3.50;99.90
8778;DHT22;4425;50.872;4.712;2023-01-19T16:40:09;3.40;99.90
8778;DHT22;4425;50.872;4.712;2023-01-19T16:42:40;3.30;99.90
8778;DHT22;4425;50.872;4.712;2023-01-19T16:45:07;3.30;99.90
8778;DHT22;4425;50.872;4.712;2023-01-19T16:47:36;3.20;99.90
8778;DHT22;4425;50.872;4.712;2023-01-19T16:50:05;3.20;99.90
8778;DHT22;4425;50.872;4.712;2023-01-19T16:52:33;3.10;99.90
8778;DHT22;4425;50.872;4.712;2023-01-19T16:55:02;3.10;99.90
8778;DHT22;4425;50.872;4.712;2023-01-19T16:57:33;3.10;99.90
8778;DHT22;4425;50.872;4.712;2023-01-19T17:00:02;3.00;99.90
8778;DHT22;4425;50.872;4.712;2023-01-19T17:02:29;3.00;99.90